Lake Isabella, CA (93240)

4:26 AM PDT on September 20, 2014 (GMT -0700)
Squirrel Mountain Valley | Change Station
CLOSE
Current Station
Personal Weather Station
Location: Squirrel Mountain Valley, CA
Elevation: 2884 ft
Nearby Weather Stations

Elev 2884 ft 35.63 °N, 118.41 °W | Updated 6 seconds ago

Clear
Clear
59.9 °F
Feels Like 59.9 °F
N
0.0
Wind Variable Wind from WSW
Gusts 1.0 mph

Today
High -- | Low -- °F
--% Chance of Precip.
Yesterday
High -- | Low -- °F
Precip. -- in
6:40 AM 6:53 PM
Waning Crescent, 13% visible
Pressure 30.02 in
Visibility 10.0 miles
Clouds Clear
Dew Point 52 °F
Humidity 74%
Rainfall 0.00 in
Snow Depth 0 in , 0 in , 0 in
UV 0 out of 12
Pollen 7.10 out of 12
Ozone Good
PM2.5 Unhealthy for Sensitive Groups
Flu Activity Not available.
METAR KTSP 201115Z AUTO 00000KT 10SM CLR 11/08 A3002 RMK AO2

More Conditions Fewer Conditions

Pressure 30.02 in
Visibility 10.0 miles
Clouds Clear
Dew Point 52 °F
Humidity 74%
Rainfall 0.00 in
Snow Depth 0 in , 0 in , 0 in
UV 0 out of 12
Pollen 7.10 out of 12
Ozone Good
PM2.5 Unhealthy for Sensitive Groups
Flu Activity Not available.
METAR KTSP 201115Z AUTO 00000KT 10SM CLR 11/08 A3002 RMK AO2

More Conditions Fewer Conditions

10-Day Weather Forecast

Almanac

Astronomy

Sep. 20, 2014 Rise Set
Actual Time 6:40 AM PDT 6:53 PM PDT
Civil Twilight 6:14 AM PDT 7:18 PM PDT
Nautical Twilight 5:44 AM PDT 7:48 PM PDT
Astronomical Twilight 5:14 AM PDT 8:18 PM PDT
Moon 3:29 AM PDT 4:55 PM PDT
Length of Visible Light 13h 04m
Length of Day
12h 13m
Tomorrow will be 2m 13s shorter.
Waning Crescent, 13% of the Moon is Illuminated
Today
Waning Crescent
Sep 24
New
Oct 1
First Quarter
Oct 8
Full
Oct 15
Last Quarter

Today's Extremes

State Highs State Lows

Community

WunderPhotos

Upload Photos

1,754,832 photos uploaded!

WunderBlogs® & News

Nearby

Air Quality

  Air Quality AQ Index Pollutant
Yesterday Moderate
PM2.5
Yesterday Good
OZONE
Current Unhealthy for Sensitive Groups
PM2.5
Current Good
OZONE
Saturday Moderate
PM2.5
Sunday Moderate
OZONE
Monday Moderate
PM2.5
Tuesday Moderate
OZONE
Wednesday Moderate
PM2.5

Snow Depth

Station Depth Elevation
Echo Peak 0 in 7800 ft
Forestdale Creek 0 in 8029 ft
Crowder Flat 0 in 5100 ft
CSS Lab 3 in 6900 ft
Heavenly Valley 0 in 8850 ft

Earthquake Activity

City Distance Mag. Time & Date
Inyokern, California 43 miles 3.1 5:33 PM PDT
2014-09-19
Corcoran, California 75 miles 2.9 3:59 PM PDT
2014-09-18
Minimum magnitude displayed is 2.5.

Coastal Water Temperatures

Place Temperature
No Stations Reporting

Nearby Weather Stations